Time;durP1;ratioP1;P1;durP2;ratioP2;P2;SDS_P1;SDS_P2;PMS_P1;PMS_P2;Temp;Humidity;BMP_temperature;BMP_pressure;BME280_temperature;BME280_humidity;BME280_pressure;Samples;Min_cycle;Max_cycle;Signal;HPM_P1;HPM_P2
2022/01/22 00:01:11;;;;;;;2.17;2.07;;;;;;;-0.39;85.81;99899.59;5049854;28;20292;-58
2022/01/22 00:03:40;;;;;;;2.53;2.33;;;;;;;-0.34;86.62;99904.78;5050013;28;20203;-58
2022/01/22 00:06:07;;;;;;;2.47;2.27;;;;;;;-0.31;85.87;99890.38;5050162;28;20203;-57
2022/01/22 00:08:34;;;;;;;3.70;2.40;;;;;;;-0.44;86.59;99893.50;5050068;28;20287;-57
2022/01/22 00:11:02;;;;;;;8.40;2.47;;;;;;;-0.51;87.43;99889.13;5049910;28;20724;-56
2022/01/22 00:16:14;;;;;;;4.87;2.50;;;;;;;-0.46;86.59;99890.94;5050202;28;20687;-59
2022/01/22 00:18:42;;;;;;;2.87;2.60;;;;;;;-0.52;85.65;99892.50;5050181;28;20225;-60
2022/01/22 00:21:09;;;;;;;2.40;2.20;;;;;;;-0.55;85.43;99888.19;5050122;28;20590;-60
2022/01/22 00:23:38;;;;;;;4.27;2.00;;;;;;;-0.47;86.19;99893.47;5049784;28;20203;-60
2022/01/22 00:26:05;;;;;;;2.73;2.10;;;;;;;-0.39;84.06;99886.84;5049881;28;20193;-60
2022/01/22 00:28:32;;;;;;;5.23;2.17;;;;;;;-0.43;84.24;99892.69;5050258;28;20227;-57
2022/01/22 00:30:59;;;;;;;2.67;2.17;;;;;;;-0.46;83.86;99890.94;5050199;28;20201;-57
2022/01/22 00:33:26;;;;;;;5.13;2.10;;;;;;;-0.40;84.44;99892.75;5049991;28;20197;-57
2022/01/22 00:35:54;;;;;;;4.63;2.43;;;;;;;-0.30;83.28;99891.25;5050101;28;20244;-57
2022/01/22 00:38:21;;;;;;;4.90;2.23;;;;;;;-0.29;84.14;99886.19;5049921;28;20199;-60
2022/01/22 00:40:51;;;;;;;3.47;2.20;;;;;;;-0.29;83.84;99880.22;5050221;28;20650;-60
2022/01/22 00:43:19;;;;;;;2.47;2.27;;;;;;;-0.42;83.99;99861.25;5049925;28;20197;-60
2022/01/22 00:45:46;;;;;;;3.40;1.63;;;;;;;-0.40;83.76;99890.22;5049997;28;20223;-60
2022/01/22 00:48:13;;;;;;;2.33;2.00;;;;;;;-0.49;84.73;99884.91;5049857;28;20197;-57
2022/01/22 00:50:40;;;;;;;5.63;2.53;;;;;;;-0.49;84.90;99895.97;5049650;28;20199;-56
2022/01/22 00:53:09;;;;;;;3.33;2.10;;;;;;;-0.50;84.54;99888.28;5049701;28;20197;-56
2022/01/22 00:55:36;;;;;;;6.00;2.90;;;;;;;-0.55;84.22;99890.72;5049875;28;20243;-57
2022/01/22 00:58:03;;;;;;;3.77;2.17;;;;;;;-0.47;84.20;99885.81;5049836;28;20410;-57
2022/01/22 01:00:30;;;;;;;4.53;2.40;;;;;;;-0.64;84.44;99864.19;5049671;28;20207;-57
2022/01/22 01:02:56;;;;;;;4.53;2.40;;;;;;;-0.49;83.52;99882.38;5049837;28;20205;-57
2022/01/22 01:05:23;;;;;;;2.83;2.60;;;;;;;-0.48;83.23;99886.66;5049663;28;20283;-57
2022/01/22 01:07:50;;;;;;;2.80;2.50;;;;;;;-0.45;82.61;99890.09;5049877;28;20207;-56
2022/01/22 01:10:21;;;;;;;3.37;2.47;;;;;;;-0.80;82.90;99853.69;5050398;28;20235;-59
2022/01/22 01:12:49;;;;;;;6.67;2.37;;;;;;;-0.69;82.70;99865.78;5053210;28;20284;-60
2022/01/22 01:15:34;;;;;;;4.13;2.20;;;;;;;-0.77;82.37;99845.22;5053205;28;20227;-60
2022/01/22 01:32:09;;;;;;;3.03;2.50;;;;;;;-0.50;81.21;99873.00;5053072;28;20243;-60
2022/01/22 01:32:16;;;;;;;2.47;2.27;;;;;;;-0.65;80.28;99873.53;5052868;28;20200;-57
2022/01/22 01:34:44;;;;;;;2.43;2.23;;;;;;;-0.69;80.92;99873.44;5052558;28;20667;-61
2022/01/22 01:37:14;;;;;;;4.27;2.30;;;;;;;-0.62;80.80;99862.53;5052895;28;20195;-57
2022/01/22 01:39:42;;;;;;;2.30;2.00;;;;;;;-0.62;80.64;99865.09;5052751;28;20209;-57
2022/01/22 01:42:15;;;;;;;3.57;2.40;;;;;;;-0.65;78.91;99862.47;5052595;28;20691;-58
2022/01/22 01:44:42;;;;;;;2.67;2.20;;;;;;;-0.66;80.16;99856.50;5052849;28;20197;-57
2022/01/22 01:47:12;;;;;;;2.40;2.20;;;;;;;-0.73;79.15;99847.88;5052512;28;20201;-58
2022/01/22 01:49:39;;;;;;;5.10;2.57;;;;;;;-0.71;80.72;99853.00;5052888;28;20234;-58
2022/01/22 01:52:11;;;;;;;2.80;2.40;;;;;;;-0.66;79.83;99845.44;5052466;28;20283;-57
2022/01/22 01:54:47;;;;;;;4.63;2.70;;;;;;;-0.68;79.73;99853.09;5052507;28;20733;-57
2022/01/22 01:57:31;;;;;;;5.97;2.40;;;;;;;-0.71;80.12;99849.59;5052475;28;20235;-59
2022/01/22 02:00:00;;;;;;;2.47;2.27;;;;;;;-0.73;80.37;99850.44;5052606;28;20200;-60
2022/01/22 02:02:29;;;;;;;3.53;2.30;;;;;;;-0.83;80.77;99837.44;5052328;28;20594;-60
2022/01/22 02:04:56;;;;;;;5.97;2.07;;;;;;;-0.71;79.89;99852.16;5052591;28;20228;-60
2022/01/22 02:07:23;;;;;;;5.30;2.50;;;;;;;-0.73;80.01;99852.13;5052393;28;20299;-60
2022/01/22 02:09:50;;;;;;;2.60;2.40;;;;;;;-0.79;80.69;99852.00;5052212;28;20227;-60
2022/01/22 02:12:36;;;;;;;2.77;2.30;;;;;;;-0.80;80.07;99848.59;5051957;28;20200;-57
2022/01/22 02:25:58;;;;;;;3.80;2.33;;;;;;;-0.83;80.78;99832.34;5050337;28;20203;-61
2022/01/22 02:28:25;;;;;;;3.10;2.27;;;;;;;-0.74;80.34;99833.41;5052066;28;20308;-61
2022/01/22 02:30:58;;;;;;;2.60;2.40;;;;;;;-0.79;80.46;99831.59;5051864;28;20680;-60
2022/01/22 02:33:32;;;;;;;3.47;2.03;;;;;;;-0.74;80.01;99827.44;5051718;28;20240;-60
2022/01/22 02:36:05;;;;;;;2.53;2.33;;;;;;;-0.82;79.60;99823.88;5051730;28;20639;-60
2022/01/22 02:38:40;;;;;;;2.23;2.03;;;;;;;-0.77;79.69;99827.38;5051915;28;20694;-60
2022/01/22 02:41:13;;;;;;;5.43;2.50;;;;;;;-0.67;80.04;99819.09;5051605;28;20211;-57
2022/01/22 02:43:40;;;;;;;2.70;2.23;;;;;;;-0.68;80.35;99819.09;5051242;28;20197;-57
2022/01/22 02:46:07;;;;;;;2.97;2.23;;;;;;;-0.73;80.30;99816.44;5051747;28;20299;-57
2022/01/22 02:48:34;;;;;;;3.43;2.23;;;;;;;-0.74;80.11;99807.94;5051477;28;20245;-61
2022/01/22 02:51:02;;;;;;;2.77;2.57;;;;;;;-0.63;80.34;99817.47;5051618;28;20207;-58
2022/01/22 02:53:29;;;;;;;3.47;2.20;;;;;;;-0.60;79.22;99820.97;5051108;28;20720;-56
2022/01/22 02:55:57;;;;;;;2.40;2.20;;;;;;;-0.64;80.16;99823.41;5051299;28;20226;-57
2022/01/22 02:58:25;;;;;;;6.27;3.03;;;;;;;-0.62;79.76;99825.16;5051341;28;20201;-60
2022/01/22 03:00:52;;;;;;;2.67;2.30;;;;;;;-0.73;79.95;99813.88;5051275;28;20196;-61
2022/01/22 03:03:19;;;;;;;2.63;2.20;;;;;;;-0.69;79.95;99814.81;5051153;28;20703;-60
2022/01/22 03:05:46;;;;;;;3.60;2.63;;;;;;;-0.76;80.75;99812.13;5051214;28;20643;-57
2022/01/22 03:08:14;;;;;;;3.70;2.90;;;;;;;-0.68;80.26;99806.34;5051105;28;20197;-57
2022/01/22 03:10:44;;;;;;;5.70;3.50;;;;;;;-0.68;79.75;99814.84;5051110;28;20197;-58
2022/01/22 03:16:03;;;;;;;3.73;3.20;;;;;;;-0.80;80.70;99805.25;5017740;28;20231;-60
2022/01/22 03:18:43;;;;;;;4.13;3.33;;;;;;;-0.85;80.75;99804.28;5051163;28;20200;-60
2022/01/22 03:21:26;;;;;;;4.17;3.20;;;;;;;-0.87;80.32;99794.88;5050823;28;20564;-57
2022/01/22 03:29:33;;;;;;;4.27;2.90;;;;;;;-0.91;81.30;99798.22;5050792;28;20191;-60
2022/01/22 03:32:00;;;;;;;4.27;2.50;;;;;;;-0.88;81.62;99803.34;5050676;28;20292;-58
2022/01/22 03:34:29;;;;;;;2.80;2.60;;;;;;;-0.98;81.77;99787.00;5049762;28;20259;-56
2022/01/22 03:36:56;;;;;;;4.50;3.40;;;;;;;-0.88;82.27;99808.44;5050794;28;20734;-57
2022/01/22 03:39:23;;;;;;;3.47;2.80;;;;;;;-0.97;81.53;99781.09;5050687;28;20276;-57
2022/01/22 03:41:52;;;;;;;3.27;2.73;;;;;;;-0.79;81.71;99806.97;5050433;28;20213;-60
2022/01/22 03:44:20;;;;;;;2.40;2.20;;;;;;;-0.81;80.64;99800.13;5050615;28;20197;-61
2022/01/22 03:46:48;;;;;;;4.53;2.40;;;;;;;-0.77;80.68;99807.84;5050500;28;20192;-61
2022/01/22 03:49:16;;;;;;;3.87;2.43;;;;;;;-0.76;80.15;99806.16;5050522;28;20288;-61
2022/01/22 03:51:44;;;;;;;3.33;2.37;;;;;;;-0.66;80.15;99809.75;5050460;28;20668;-60
2022/01/22 03:54:11;;;;;;;4.90;2.40;;;;;;;-0.84;80.58;99793.28;5050152;28;20200;-60
2022/01/22 03:56:43;;;;;;;3.20;2.27;;;;;;;-0.79;80.08;99795.94;5050433;28;20224;-60
2022/01/22 03:59:10;;;;;;;4.97;2.43;;;;;;;-0.86;80.61;99807.66;5050389;28;20201;-60
2022/01/22 04:04:38;;;;;;;3.00;2.70;;;;;;;-0.86;80.23;99784.72;4988569;28;20207;-57
2022/01/22 04:09:58;;;;;;;5.03;2.90;;;;;;;-0.88;79.79;99791.47;5050124;28;20197;-57
2022/01/22 04:12:32;;;;;;;3.10;2.53;;;;;;;-0.70;79.28;99793.56;5050229;28;20199;-58
2022/01/22 04:15:02;;;;;;;3.20;2.40;;;;;;;-0.78;79.84;99773.00;5049820;28;20236;-56
2022/01/22 04:24:49;;;;;;;4.10;2.67;;;;;;;-0.69;80.09;99799.53;5050366;28;20197;-60
2022/01/22 04:26:02;;;;;;;3.50;2.40;;;;;;;-0.73;80.28;99794.34;5049961;28;20264;-59
2022/01/22 04:28:29;;;;;;;2.80;2.47;;;;;;;-0.86;80.86;99791.50;5050016;28;20200;-59
2022/01/22 04:30:56;;;;;;;2.83;2.57;;;;;;;-0.90;81.09;99787.16;5050047;28;20600;-60
2022/01/22 04:33:23;;;;;;;3.53;2.50;;;;;;;-0.69;80.55;99797.84;5049908;28;20198;-60
2022/01/22 04:35:51;;;;;;;4.27;2.77;;;;;;;-0.82;80.78;99783.97;5049570;28;20618;-60
2022/01/22 04:38:18;;;;;;;4.50;2.47;;;;;;;-0.82;81.00;99796.72;5049883;28;20643;-60
2022/01/22 04:40:45;;;;;;;2.40;2.20;;;;;;;-0.78;81.28;99795.94;5050110;28;20211;-60
2022/01/22 04:43:12;;;;;;;3.70;2.50;;;;;;;-0.83;81.71;99786.50;5049809;28;20283;-60
2022/01/22 04:45:50;;;;;;;3.67;2.63;;;;;;;-0.83;81.53;99792.44;5051404;28;20211;-60
2022/01/22 04:48:28;;;;;;;3.27;2.97;;;;;;;-0.85;81.84;99803.44;5053776;28;20200;-57
2022/01/22 04:56:25;;;;;;;5.57;3.23;;;;;;;-1.09;82.49;99806.28;5053594;28;20219;-57
2022/01/22 04:58:52;;;;;;;3.60;2.77;;;;;;;-1.23;82.09;99779.66;5053463;28;20218;-57
2022/01/22 05:01:19;;;;;;;8.73;3.20;;;;;;;-1.18;82.15;99791.69;5053797;28;20310;-58
2022/01/22 05:03:46;;;;;;;3.53;2.83;;;;;;;-1.05;81.95;99789.41;5053172;28;20208;-58
2022/01/22 05:06:14;;;;;;;4.53;3.07;;;;;;;-1.13;81.62;99795.16;5053536;28;20197;-58
2022/01/22 05:08:41;;;;;;;3.27;3.00;;;;;;;-1.07;81.44;99791.06;5053480;28;20199;-57
2022/01/22 05:11:08;;;;;;;3.20;2.93;;;;;;;-1.06;81.59;99793.63;5053335;28;20287;-58
2022/01/22 05:13:35;;;;;;;3.03;2.83;;;;;;;-1.01;81.13;99794.59;5053115;28;20823;-58
2022/01/22 05:16:02;;;;;;;3.73;2.60;;;;;;;-1.04;80.32;99788.59;5053413;28;20224;-55
2022/01/22 05:18:29;;;;;;;6.10;2.50;;;;;;;-1.10;81.01;99785.06;5053179;28;20242;-57
2022/01/22 05:21:05;;;;;;;4.47;2.77;;;;;;;-1.07;81.32;99779.19;5053169;28;20236;-57
2022/01/22 05:23:35;;;;;;;4.10;2.57;;;;;;;-1.10;81.00;99781.66;5052858;28;20192;-57
2022/01/22 05:26:05;;;;;;;3.20;2.90;;;;;;;-1.04;80.95;99781.81;5052864;28;20661;-57
2022/01/22 05:29:02;;;;;;;6.67;3.00;;;;;;;-0.96;79.91;99769.22;5052714;28;20595;-57
2022/01/22 05:31:40;;;;;;;3.50;2.53;;;;;;;-0.98;79.93;99774.28;5052174;28;20200;-57
2022/01/22 05:36:59;;;;;;;3.60;2.70;;;;;;;-1.05;79.73;99785.16;5052823;28;20215;-56
2022/01/22 05:39:29;;;;;;;3.80;2.73;;;;;;;-0.98;79.79;99774.28;5052947;28;20562;-57
2022/01/22 05:41:57;;;;;;;2.60;2.40;;;;;;;-0.89;78.60;99778.69;5052729;28;20196;-57
2022/01/22 05:44:24;;;;;;;3.73;2.80;;;;;;;-0.96;79.67;99774.31;5052015;28;20580;-57
2022/01/22 05:46:53;;;;;;;4.37;3.13;;;;;;;-1.01;79.56;99780.97;5033196;28;20217;-57
2022/01/22 05:49:22;;;;;;;5.33;2.30;;;;;;;-0.97;79.31;99783.66;5052054;28;20207;-57
2022/01/22 05:51:52;;;;;;;2.80;2.60;;;;;;;-0.90;79.92;99785.47;5049747;28;20228;-56
2022/01/22 05:59:45;;;;;;;3.73;2.70;;;;;;;-0.98;79.71;99760.69;5052734;28;20195;-61
2022/01/22 06:02:14;;;;;;;3.10;2.80;;;;;;;-0.85;79.69;99771.16;5052550;28;20228;-60
2022/01/22 06:04:42;;;;;;;3.67;2.83;;;;;;;-0.79;79.75;99776.38;5052340;28;20196;-58
2022/01/22 06:07:10;;;;;;;3.13;2.70;;;;;;;-0.83;79.93;99773.75;5045552;28;20231;-58
2022/01/22 06:09:43;;;;;;;6.63;3.13;;;;;;;-0.78;84.44;99767.91;5050323;28;20216;-55
2022/01/22 06:12:30;;;;;;;9.83;3.53;;;;;;;-0.76;80.41;99763.69;5051117;28;20315;-56
2022/01/22 06:14:57;;;;;;;4.63;3.60;;;;;;;-0.61;79.61;99764.84;5050592;28;20239;-56
2022/01/22 06:17:23;;;;;;;5.73;4.03;;;;;;;-0.57;79.05;99767.50;5051130;28;20228;-55
2022/01/22 06:19:50;;;;;;;7.77;4.40;;;;;;;-0.47;78.75;99759.19;5050580;28;20231;-56
2022/01/22 06:22:17;;;;;;;12.73;5.13;;;;;;;-0.49;78.31;99749.78;5051096;28;20224;-57
2022/01/22 06:24:44;;;;;;;6.47;4.40;;;;;;;-0.40;77.51;99748.28;5052204;28;20669;-58
2022/01/22 06:27:12;;;;;;;6.90;4.30;;;;;;;-0.33;77.58;99751.78;5051786;28;20195;-58
2022/01/22 06:29:39;;;;;;;4.90;3.70;;;;;;;-0.22;77.34;99752.84;5051972;28;20597;-58
2022/01/22 06:32:07;;;;;;;5.87;3.57;;;;;;;-0.10;76.71;99752.19;5051920;28;20288;-57
2022/01/22 06:34:34;;;;;;;8.23;4.13;;;;;;;-0.05;75.94;99750.59;5051219;28;20237;-58
2022/01/22 06:37:01;;;;;;;7.03;3.60;;;;;;;-0.03;76.19;99739.59;5051680;28;20319;-55
2022/01/22 06:39:28;;;;;;;7.63;3.53;;;;;;;0.04;76.39;99737.13;5051784;28;20285;-60
2022/01/22 06:41:54;;;;;;;4.90;3.53;;;;;;;0.21;75.93;99748.50;5051026;28;20193;-60
2022/01/22 06:44:25;;;;;;;6.67;4.10;;;;;;;0.33;74.62;99735.94;5048599;28;20767;-60
2022/01/22 06:46:53;;;;;;;4.63;3.17;;;;;;;0.34;74.30;99743.59;5046987;28;20653;-60
2022/01/22 06:49:21;;;;;;;4.47;3.27;;;;;;;0.47;73.59;99726.75;5049170;28;20206;-60
2022/01/22 06:51:50;;;;;;;5.83;3.20;;;;;;;0.60;73.08;99740.56;5048901;28;20277;-61
2022/01/22 06:54:17;;;;;;;5.27;3.00;;;;;;;0.60;72.82;99733.78;5049121;28;20203;-59
2022/01/22 06:56:44;;;;;;;3.73;3.00;;;;;;;0.51;72.20;99720.88;5048885;28;20222;-58
2022/01/22 06:59:11;;;;;;;7.17;3.80;;;;;;;0.68;72.68;99732.16;5049165;28;20205;-58
2022/01/22 07:01:40;;;;;;;5.43;3.73;;;;;;;0.76;72.65;99731.44;5048479;28;20645;-58
2022/01/22 07:04:08;;;;;;;6.03;3.70;;;;;;;0.81;72.57;99734.91;5046410;28;20199;-58
2022/01/22 07:06:35;;;;;;;8.43;4.10;;;;;;;0.84;72.47;99732.41;5048661;28;20212;-58
2022/01/22 07:09:02;;;;;;;4.77;3.80;;;;;;;0.76;71.78;99728.88;5049232;28;20197;-58
2022/01/22 07:11:29;;;;;;;5.67;4.03;;;;;;;0.82;72.25;99734.06;5050322;28;20862;-58
2022/01/22 07:13:56;;;;;;;5.80;3.67;;;;;;;0.81;72.02;99734.91;5050346;28;20199;-58
2022/01/22 07:16:23;;;;;;;3.87;2.90;;;;;;;0.70;73.26;99724.53;5049438;28;20608;-57
2022/01/22 07:18:58;;;;;;;6.33;2.97;;;;;;;0.70;72.50;99725.41;5049436;28;20270;-58
2022/01/22 07:21:28;;;;;;;5.97;2.40;;;;;;;0.59;72.20;99732.03;5047243;28;20213;-58
2022/01/22 07:26:36;;;;;;;5.23;2.30;;;;;;;0.66;73.04;99723.66;5040440;28;20690;-59
2022/01/22 07:29:02;;;;;;;5.10;2.50;;;;;;;0.81;72.29;99727.25;5049816;28;20195;-58
2022/01/22 07:31:29;;;;;;;4.40;2.63;;;;;;;0.64;71.61;99715.09;5049822;28;20583;-59
2022/01/22 07:33:58;;;;;;;7.23;3.10;;;;;;;0.75;71.84;99711.84;5049330;28;20191;-57
2022/01/22 07:36:25;;;;;;;5.10;3.03;;;;;;;0.78;72.18;99699.97;5049112;28;20222;-58
2022/01/22 07:38:52;;;;;;;4.47;2.77;;;;;;;0.85;71.41;99700.91;5050151;28;20206;-57
2022/01/22 07:41:18;;;;;;;3.07;2.77;;;;;;;0.93;71.57;99706.97;5049533;28;20191;-57
2022/01/22 07:43:47;;;;;;;8.23;3.00;;;;;;;0.94;70.57;99690.78;5048430;28;20558;-56
2022/01/22 07:46:14;;;;;;;4.90;3.27;;;;;;;1.07;71.45;99698.63;5049816;28;20199;-60
2022/01/22 07:48:41;;;;;;;8.53;3.47;;;;;;;1.05;72.13;99704.56;5049996;28;20270;-60
2022/01/22 07:51:10;;;;;;;5.50;2.90;;;;;;;1.06;72.74;99699.47;5049887;28;20196;-61
2022/01/22 07:53:37;;;;;;;6.77;2.93;;;;;;;1.01;73.83;99690.91;5049974;28;20286;-60
2022/01/22 07:56:04;;;;;;;3.10;2.73;;;;;;;0.99;74.01;99686.59;5049944;28;20196;-60
2022/01/22 07:58:31;;;;;;;4.73;2.70;;;;;;;1.14;73.99;99685.91;5050275;28;20649;-60
2022/01/22 08:00:58;;;;;;;6.43;2.80;;;;;;;1.07;73.82;99678.19;5049893;28;20202;-57
2022/01/22 08:03:27;;;;;;;2.60;2.40;;;;;;;1.09;74.10;99683.31;5047285;28;20222;-58
2022/01/22 08:05:54;;;;;;;4.17;3.03;;;;;;;1.12;76.65;99685.91;5048952;28;20702;-57
2022/01/22 08:08:22;;;;;;;5.87;3.20;;;;;;;1.17;74.99;99679.16;5049568;28;20203;-57
2022/01/22 08:10:49;;;;;;;3.13;2.87;;;;;;;1.27;74.27;99685.22;5050267;28;20704;-57
2022/01/22 08:13:18;;;;;;;6.83;3.70;;;;;;;1.21;74.79;99682.59;5049673;28;20201;-57
2022/01/22 08:15:45;;;;;;;7.37;4.53;;;;;;;1.27;75.60;99680.97;5049683;28;20582;-58
2022/01/22 08:18:12;;;;;;;4.80;3.33;;;;;;;1.27;75.30;99672.44;5049413;28;20216;-57
2022/01/22 08:20:39;;;;;;;7.93;3.47;;;;;;;1.38;73.52;99681.94;5054721;28;20189;-60
2022/01/22 08:23:06;;;;;;;4.87;3.07;;;;;;;1.23;74.13;99673.25;5056364;28;20208;-62
2022/01/22 08:25:37;;;;;;;4.33;3.10;;;;;;;1.35;74.40;99681.06;5054892;28;20220;-61
2022/01/22 08:30:54;;;;;;;9.30;3.80;;;;;;;1.41;74.72;99681.13;5056066;28;20349;-61
2022/01/22 08:35:52;;;;;;;9.40;5.83;;;;;;;1.39;75.13;99683.66;5055914;28;20220;-62
2022/01/22 08:36:17;;;;;;;8.10;4.70;;;;;;;1.49;73.72;99681.19;5055809;28;20228;-60
2022/01/22 08:38:44;;;;;;;6.37;4.47;;;;;;;1.55;74.60;99671.03;5055730;28;20287;-61
2022/01/22 08:41:13;;;;;;;5.97;3.77;;;;;;;1.53;74.19;99662.47;5056305;28;20251;-61
2022/01/22 08:43:40;;;;;;;4.80;3.20;;;;;;;1.55;74.11;99656.53;5055402;28;20199;-61
2022/01/22 08:46:07;;;;;;;4.67;2.97;;;;;;;1.66;73.45;99656.63;5055931;28;20208;-61
2022/01/22 08:48:34;;;;;;;3.77;3.17;;;;;;;1.60;74.05;99647.19;5053587;28;20196;-61
2022/01/22 08:51:01;;;;;;;8.30;3.50;;;;;;;1.61;74.30;99653.16;5056323;28;20641;-60
2022/01/22 08:53:28;;;;;;;4.23;3.73;;;;;;;1.64;73.81;99642.97;5056098;28;20230;-60
2022/01/22 08:55:56;;;;;;;6.60;3.53;;;;;;;1.56;74.38;99639.50;5056179;28;20232;-60
2022/01/22 08:58:25;;;;;;;5.80;3.80;;;;;;;1.68;74.34;99637.06;5056058;28;20692;-62
2022/01/22 09:00:52;;;;;;;5.67;3.60;;;;;;;1.75;72.87;99647.34;5056279;28;20193;-62
2022/01/22 09:03:20;;;;;;;6.70;3.67;;;;;;;1.62;72.83;99639.53;5052701;28;20227;-57
2022/01/22 09:05:47;;;;;;;8.97;3.57;;;;;;;1.68;73.85;99635.34;5054820;28;20216;-58
2022/01/22 09:08:15;;;;;;;4.27;3.50;;;;;;;1.72;73.89;99633.66;5056540;28;20202;-58
2022/01/22 09:10:42;;;;;;;5.67;3.80;;;;;;;1.87;73.78;99636.34;5055979;28;20193;-59
2022/01/22 09:13:10;;;;;;;7.53;3.47;;;;;;;1.90;72.74;99636.38;5056110;28;20201;-61
2022/01/22 09:15:39;;;;;;;4.57;3.70;;;;;;;1.92;74.03;99633.84;5055583;28;20204;-57
2022/01/22 09:18:07;;;;;;;4.93;3.73;;;;;;;1.74;72.60;99594.44;5055872;28;20228;-58
2022/01/22 09:23:15;;;;;;;7.90;3.67;;;;;;;2.16;71.30;99610.94;5043327;28;20213;-58
2022/01/22 09:25:42;;;;;;;2.87;2.20;;;;;;;2.15;70.79;99611.78;5055945;28;20613;-60
2022/01/22 09:28:11;;;;;;;3.43;2.50;;;;;;;2.11;70.85;99605.81;5055945;28;20207;-59
2022/01/22 09:30:40;;;;;;;3.67;2.30;;;;;;;2.21;71.47;99601.59;5055418;28;20196;-62
2022/01/22 09:33:08;;;;;;;7.37;3.03;;;;;;;2.21;71.20;99593.06;5051327;28;20303;-64
2022/01/22 09:35:35;;;;;;;5.90;2.33;;;;;;;2.16;71.16;99585.34;5052332;28;20611;-62
2022/01/22 09:38:02;;;;;;;3.93;2.70;;;;;;;2.19;70.93;99593.06;5052090;28;20239;-61
2022/01/22 09:40:30;;;;;;;5.83;2.63;;;;;;;2.22;71.00;99589.66;5053649;28;20605;-58
2022/01/22 09:42:59;;;;;;;4.47;2.27;;;;;;;2.23;72.08;99584.56;5052818;28;20211;-57
2022/01/22 09:45:27;;;;;;;3.20;2.57;;;;;;;2.24;71.07;99570.03;5053167;28;20579;-59
2022/01/22 09:47:59;;;;;;;2.10;1.83;;;;;;;2.29;70.18;99563.22;5052773;28;20203;-63
2022/01/22 09:50:27;;;;;;;2.40;1.60;;;;;;;2.29;68.82;99552.97;5053081;28;20201;-60
2022/01/22 09:52:55;;;;;;;9.23;2.50;;;;;;;2.31;67.41;99551.28;5052231;28;20304;-61
2022/01/22 09:55:22;;;;;;;4.17;1.97;;;;;;;2.43;66.04;99551.34;5052300;28;20194;-61
2022/01/22 09:57:50;;;;;;;2.90;1.90;;;;;;;2.49;66.13;99536.00;5049547;28;20293;-61
2022/01/22 10:00:19;;;;;;;2.30;2.10;;;;;;;2.24;66.37;99508.59;5053172;28;20250;-61
2022/01/22 10:02:47;;;;;;;7.40;2.40;;;;;;;2.41;66.94;99522.31;5052706;28;20192;-57
2022/01/22 10:05:30;;;;;;;2.70;2.30;;;;;;;2.45;66.22;99529.16;5052313;28;20227;-58
2022/01/22 10:08:24;;;;;;;4.23;1.97;;;;;;;2.47;65.55;99512.09;5032503;28;20233;-58
2022/01/22 10:10:52;;;;;;;3.50;2.07;;;;;;;2.43;66.06;99511.22;5034921;28;20236;-62
2022/01/22 10:13:42;;;;;;;2.70;2.03;;;;;;;2.51;65.82;99513.81;5051571;28;20805;-63
2022/01/22 10:16:18;;;;;;;2.30;2.00;;;;;;;2.52;65.41;99500.16;5051913;28;20220;-60
2022/01/22 10:18:45;;;;;;;3.67;3.00;;;;;;;2.56;65.26;99496.75;5052018;28;20234;-61
2022/01/22 10:21:15;;;;;;;2.47;2.27;;;;;;;2.57;64.32;99510.41;5051866;28;20237;-61
2022/01/22 10:23:42;;;;;;;7.10;2.30;;;;;;;2.53;64.24;99499.28;5052139;28;20673;-61
2022/01/22 10:26:13;;;;;;;6.23;2.43;;;;;;;2.62;63.94;99496.75;5051440;28;20668;-62
2022/01/22 10:28:44;;;;;;;4.90;2.10;;;;;;;2.52;63.46;99505.25;5051409;28;20217;-61
2022/01/22 10:31:20;;;;;;;4.37;2.23;;;;;;;2.61;63.30;99500.16;5031782;28;20256;-61
2022/01/22 10:34:05;;;;;;;3.63;1.97;;;;;;;2.72;63.63;99493.34;5042495;28;20233;-61
2022/01/22 10:36:33;;;;;;;1.93;1.70;;;;;;;2.75;65.39;99495.94;5049982;28;20227;-62
2022/01/22 10:39:00;;;;;;;4.57;2.57;;;;;;;2.85;64.27;99489.97;5051375;28;20223;-61
2022/01/22 10:41:35;;;;;;;4.97;2.23;;;;;;;2.76;63.38;99487.41;5050981;28;20192;-62
2022/01/22 10:44:03;;;;;;;2.70;2.30;;;;;;;2.91;62.57;99495.13;5049901;28;20652;-62
2022/01/22 10:46:44;;;;;;;2.97;2.40;;;;;;;3.08;62.81;99486.59;5051861;28;20201;-62
2022/01/22 10:49:13;;;;;;;5.17;2.67;;;;;;;3.17;61.97;99476.31;5051608;28;20673;-58
2022/01/22 10:51:50;;;;;;;2.80;2.23;;;;;;;3.18;57.31;99493.44;5051414;28;20204;-58
2022/01/22 10:54:18;;;;;;;3.63;2.13;;;;;;;3.13;53.57;99487.47;5051607;28;20202;-61
2022/01/22 10:56:46;;;;;;;2.70;1.97;;;;;;;2.89;52.79;99478.88;5051245;28;20208;-61
2022/01/22 10:59:16;;;;;;;3.53;2.03;;;;;;;2.92;52.69;99478.03;5047468;28;20635;-61
2022/01/22 11:01:51;;;;;;;5.70;2.23;;;;;;;2.74;53.54;99471.16;5050517;28;20257;-61
2022/01/22 11:04:21;;;;;;;3.67;2.43;;;;;;;2.67;53.45;99461.75;5050738;28;20223;-62
2022/01/22 11:06:51;;;;;;;3.50;3.00;;;;;;;2.76;55.16;99472.03;5050098;28;20221;-59
2022/01/22 11:09:19;;;;;;;4.87;2.83;;;;;;;2.68;54.74;99472.88;5050603;28;20209;-56
2022/01/22 11:11:46;;;;;;;5.83;3.03;;;;;;;2.78;54.97;99478.00;5050441;28;20231;-59
2022/01/22 11:14:14;;;;;;;5.77;3.17;;;;;;;2.62;56.36;99460.88;5043649;28;20290;-58
2022/01/22 11:16:44;;;;;;;3.60;2.60;;;;;;;2.63;57.81;99467.72;5050538;28;20624;-58
2022/01/22 11:19:12;;;;;;;4.40;2.50;;;;;;;2.69;58.63;99461.78;5050252;28;20242;-58
2022/01/22 11:21:44;;;;;;;4.17;2.77;;;;;;;2.79;59.15;99466.91;5050489;28;20189;-56
2022/01/22 11:24:14;;;;;;;2.77;2.43;;;;;;;2.83;58.24;99454.94;5048617;28;20709;-58
2022/01/22 11:26:45;;;;;;;2.70;2.33;;;;;;;2.80;56.57;99454.94;5050318;28;20281;-59
2022/01/22 11:29:16;;;;;;;2.53;2.00;;;;;;;2.80;55.05;99458.38;5050540;28;20587;-57
2022/01/22 11:31:46;;;;;;;3.67;2.43;;;;;;;2.89;54.68;99455.81;5050319;28;20199;-58
2022/01/22 11:34:17;;;;;;;3.90;2.40;;;;;;;2.83;55.50;99450.66;5050005;28;20319;-56
2022/01/22 11:36:48;;;;;;;6.67;2.73;;;;;;;2.67;55.84;99420.75;5049876;28;20194;-57
2022/01/22 11:39:21;;;;;;;3.27;2.97;;;;;;;2.61;56.74;99428.44;5049878;28;20224;-57
2022/01/22 11:41:53;;;;;;;4.50;3.10;;;;;;;2.67;57.66;99443.81;5047945;28;20197;-59
2022/01/22 11:44:34;;;;;;;4.37;3.20;;;;;;;2.67;56.87;99436.13;5045516;28;20713;-57
2022/01/22 11:47:13;;;;;;;5.27;3.43;;;;;;;2.64;57.59;99442.94;5049793;28;20622;-58
2022/01/22 11:49:41;;;;;;;4.70;3.83;;;;;;;2.56;57.08;99437.81;5049903;28;20219;-58
2022/01/22 11:52:28;;;;;;;3.83;3.40;;;;;;;2.59;56.25;99442.09;5049440;28;20818;-59
2022/01/22 11:55:00;;;;;;;3.93;3.30;;;;;;;2.51;56.79;99442.94;5049805;28;20310;-58
2022/01/22 11:57:29;;;;;;;2.93;2.67;;;;;;;2.42;56.17;99440.34;5049709;28;20239;-59
2022/01/22 12:00:27;;;;;;;5.80;3.30;;;;;;;2.40;56.32;99423.25;5050178;28;20230;-62
2022/01/22 12:03:19;;;;;;;3.13;2.87;;;;;;;2.49;56.85;99433.53;5027035;28;20235;-58
2022/01/22 12:06:07;;;;;;;2.73;2.27;;;;;;;2.49;54.64;99423.28;5048097;28;20225;-58
2022/01/22 12:09:06;;;;;;;4.00;2.40;;;;;;;2.51;53.31;99426.69;5049645;28;20214;-57
2022/01/22 12:14:55;;;;;;;3.10;2.80;;;;;;;2.67;54.88;99427.59;5046502;28;20670;-58
2022/01/22 12:17:58;;;;;;;4.27;2.53;;;;;;;2.79;54.68;99415.66;5049266;28;20214;-58
2022/01/22 12:23:50;;;;;;;2.80;2.60;;;;;;;2.86;53.78;99409.66;5029520;28;20634;-57
2022/01/22 12:26:38;;;;;;;3.60;3.30;;;;;;;2.98;53.65;99415.66;5024046;28;20309;-58
2022/01/22 12:29:32;;;;;;;5.23;2.37;;;;;;;3.08;53.38;99420.78;5029317;28;20223;-58
2022/01/22 12:32:07;;;;;;;5.37;2.53;;;;;;;3.07;51.76;99402.81;5029342;28;20355;-58
2022/01/22 12:34:53;;;;;;;2.30;2.10;;;;;;;3.01;48.97;99419.06;5032390;28;20233;-58
2022/01/22 12:37:21;;;;;;;3.37;2.50;;;;;;;3.03;49.99;99422.50;5048905;28;20271;-57
2022/01/22 12:39:52;;;;;;;2.83;2.30;;;;;;;3.10;50.04;99420.78;5049552;28;20229;-57
2022/01/22 12:42:27;;;;;;;2.57;2.13;;;;;;;3.03;50.15;99416.50;5049282;28;20738;-58
2022/01/22 12:45:00;;;;;;;2.90;2.40;;;;;;;3.00;51.01;99403.69;5049499;28;20220;-58
2022/01/22 12:47:28;;;;;;;3.70;2.40;;;;;;;3.03;51.62;99409.69;5049416;28;20682;-58
2022/01/22 12:50:04;;;;;;;2.90;2.40;;;;;;;3.00;51.94;99413.94;5048810;28;20222;-58
2022/01/22 12:52:34;;;;;;;5.03;2.37;;;;;;;2.86;51.21;99393.44;5049021;28;20264;-58
2022/01/22 12:55:15;;;;;;;2.37;2.17;;;;;;;2.97;51.46;99419.91;5049541;28;20246;-61
2022/01/22 12:57:43;;;;;;;2.80;2.43;;;;;;;2.95;51.64;99420.75;5049596;28;20792;-61
2022/01/22 13:00:15;;;;;;;3.00;2.10;;;;;;;3.02;51.01;99422.50;5049576;28;20633;-61
2022/01/22 13:02:43;;;;;;;2.60;2.40;;;;;;;3.02;51.34;99420.78;5047589;28;20219;-60
2022/01/22 13:05:12;;;;;;;2.30;2.10;;;;;;;3.01;52.38;99428.47;5049403;28;20731;-61